Terminal Aerodrome Forecast
Issued by NWS Sioux Falls, SD

Home | Current Version | Previous Version | Text Only | Print | Product List | Glossary On
Versions: 1 2 3 4 5 6 7 8 9 10 11 12 13 14 15 16 17 18 19 20 21 22 23 24 25 26 27 28
000
FTUS43 KFSD 210500
TAFSUX
TAF
KSUX 210520Z 2106/2206 12009KT P6SM SCT100
     FM211000 14008KT 6SM BR SCT120 BKN200
     FM211500 19010KT P6SM BKN090
     FM211800 21010KT P6SM SCT035 SCT100
     FM220000 15006KT P6SM BKN045=

USA.gov is the U.S. government's official web portal to all federal, state and local government web resources and services.